Time;durP1;ratioP1;P1;durP2;ratioP2;P2;SDS_P1;SDS_P2;PMS_P1;PMS_P2;Temp;Humidity;BMP_temperature;BMP_pressure;BME280_temperature;BME280_humidity;BME280_pressure;Samples;Min_cycle;Max_cycle;Signal;HPM_P1;HPM_P2
2021/03/21 00:01:05;;;;;;;6.23;4.20;;;-3.20;99.90;;;;;;5081029;28;20403;-80
2021/03/21 00:03:31;;;;;;;5.17;3.77;;;-3.20;99.90;;;;;;5081710;28;20453;-80
2021/03/21 00:05:58;;;;;;;5.63;4.00;;;-3.30;99.90;;;;;;5100499;28;20418;-80
2021/03/21 00:08:29;;;;;;;6.30;4.50;;;-3.30;99.90;;;;;;5081012;28;20434;-80
2021/03/21 00:11:01;;;;;;;8.80;4.23;;;-3.30;99.90;;;;;;5099705;28;20462;-80
2021/03/21 00:13:27;;;;;;;6.60;3.90;;;-3.20;99.90;;;;;;5099405;28;20441;-80
2021/03/21 00:15:54;;;;;;;7.90;4.67;;;-3.00;99.90;;;;;;5099521;28;20426;-79
2021/03/21 00:18:22;;;;;;;5.50;3.53;;;-3.20;99.90;;;;;;5099548;28;20406;-80
2021/03/21 00:20:48;;;;;;;7.07;4.17;;;-3.20;99.90;;;;;;5081466;28;20414;-80
2021/03/21 00:23:15;;;;;;;7.50;4.40;;;-3.00;99.90;;;;;;5099237;28;20415;-80
2021/03/21 00:25:41;;;;;;;7.47;4.50;;;-3.30;99.90;;;;;;5081699;28;20226;-80
2021/03/21 00:28:11;;;;;;;6.33;4.47;;;-3.30;99.90;;;;;;5081562;28;20421;-80
2021/03/21 00:30:40;;;;;;;7.70;3.70;;;-3.30;99.90;;;;;;5081510;28;20259;-80
2021/03/21 00:33:08;;;;;;;7.60;4.07;;;-3.30;99.90;;;;;;5099243;28;20417;-80
2021/03/21 00:35:34;;;;;;;5.53;3.73;;;;;;;;;;5079983;28;20911;-80
2021/03/21 00:38:03;;;;;;;5.43;3.60;;;-3.40;99.90;;;;;;5079276;28;20407;-80
2021/03/21 00:40:30;;;;;;;6.37;3.60;;;-3.40;99.90;;;;;;5079970;28;20919;-80
2021/03/21 00:42:57;;;;;;;5.87;3.47;;;-3.40;99.90;;;;;;5079808;28;20442;-80
2021/03/21 00:45:24;;;;;;;5.70;4.10;;;-3.40;99.90;;;;;;5079598;28;20411;-80
2021/03/21 00:47:52;;;;;;;12.90;7.37;;;-3.40;99.90;;;;;;5098083;28;20458;-80
2021/03/21 00:50:22;;;;;;;26.63;11.80;;;-3.50;99.90;;;;;;5079929;28;20412;-80
2021/03/21 00:52:47;;;;;;;27.50;12.80;;;-3.30;99.90;;;;;;5079298;28;20415;-80
2021/03/21 00:55:13;;;;;;;69.23;27.97;;;-3.30;99.90;;;;;;5097363;28;20415;-80
2021/03/21 00:57:40;;;;;;;43.40;18.30;;;-3.30;99.90;;;;;;5079485;28;20258;-80
2021/03/21 01:00:10;;;;;;;70.10;26.80;;;-3.30;99.90;;;;;;5097642;28;20486;-80
2021/03/21 01:02:36;;;;;;;30.87;14.73;;;-3.30;99.90;;;;;;5078755;28;20426;-80
2021/03/21 01:05:04;;;;;;;20.03;10.13;;;-3.30;99.90;;;;;;5097125;28;20404;-80
2021/03/21 01:07:30;;;;;;;9.47;6.03;;;-3.20;99.90;;;;;;5082189;28;20210;-80
2021/03/21 01:09:56;;;;;;;9.53;4.47;;;-3.20;99.90;;;;;;5082358;28;20455;-80
2021/03/21 01:12:21;;;;;;;5.20;4.07;;;-2.60;99.90;;;;;;5101555;28;20164;-80
2021/03/21 01:14:47;;;;;;;4.40;3.77;;;-3.20;99.90;;;;;;5101701;28;20246;-80
2021/03/21 01:17:13;;;;;;;9.03;4.17;;;-3.10;99.90;;;;;;5083314;28;20190;-80
2021/03/21 01:19:38;;;;;;;5.90;4.37;;;-3.10;99.90;;;;;;5102005;28;20179;-80
2021/03/21 01:22:04;;;;;;;8.87;4.67;;;-1.40;99.90;;;;;;5102150;28;20264;-80
2021/03/21 01:24:30;;;;;;;5.53;3.73;;;-3.00;99.90;;;;;;5101852;28;20170;-81
2021/03/21 01:26:56;;;;;;;7.07;4.50;;;-3.00;99.90;;;;;;5102537;28;20426;-81
2021/03/21 01:29:21;;;;;;;6.70;4.47;;;-3.00;99.90;;;;;;5102760;28;20200;-80
2021/03/21 01:31:47;;;;;;;5.73;3.77;;;-3.00;99.90;;;;;;5102970;28;20195;-80
2021/03/21 01:34:13;;;;;;;6.07;4.00;;;-2.90;99.90;;;;;;5102947;28;20223;-80
2021/03/21 01:36:40;;;;;;;7.13;4.20;;;-2.90;99.90;;;;;;5103217;28;20422;-80
2021/03/21 01:39:17;;;;;;;4.97;3.43;;;-2.90;99.90;;;;;;5103006;28;20410;-80
2021/03/21 01:41:43;;;;;;;5.27;3.77;;;-2.80;99.90;;;;;;5085404;28;20420;-81
2021/03/21 01:44:13;;;;;;;6.00;4.20;;;-2.80;99.90;;;;;;5103978;28;20410;-80
2021/03/21 01:46:39;;;;;;;6.37;3.77;;;-2.70;99.90;;;;;;5085938;28;20200;-80
2021/03/21 01:49:14;;;;;;;6.73;3.60;;;-2.70;99.90;;;;;;5104547;28;20422;-81
2021/03/21 01:51:41;;;;;;;5.47;3.27;;;-0.90;99.90;;;;;;5086240;28;20263;-81
2021/03/21 01:54:09;;;;;;;8.87;4.10;;;-1.40;99.90;;;;;;5086813;28;20476;-80
2021/03/21 01:56:37;;;;;;;4.67;3.30;;;-2.70;99.90;;;;;;5104169;28;20431;-81
2021/03/21 01:59:05;;;;;;;4.40;2.90;;;-2.10;99.90;;;;;;5088184;28;20418;-80
2021/03/21 02:01:31;;;;;;;12.43;3.80;;;-2.70;99.90;;;;;;5087909;28;20494;-80
2021/03/21 02:03:58;;;;;;;6.87;3.30;;;-2.80;99.90;;;;;;5099881;28;20922;-79
2021/03/21 02:06:59;;;;;;;5.23;3.43;;;-2.80;99.90;;;;;;5079998;28;20198;-80
2021/03/21 02:09:43;;;;;;;6.23;3.77;;;-2.70;99.90;;;;;;5079068;28;20423;-79
2021/03/21 02:12:45;;;;;;;8.57;3.57;;;-2.70;99.90;;;;;;5097985;28;20828;-80
2021/03/21 02:15:24;;;;;;;4.77;3.60;;;-2.70;99.90;;;;;;5079775;28;20806;-80
2021/03/21 02:18:06;;;;;;;5.93;3.07;;;-2.70;99.90;;;;;;5097175;28;20406;-80
2021/03/21 02:21:03;;;;;;;4.37;3.20;;;-2.60;99.90;;;;;;5079103;28;20412;-80
2021/03/21 02:23:46;;;;;;;5.13;3.30;;;-2.70;99.90;;;;;;5097447;28;20405;-80
2021/03/21 02:26:45;;;;;;;4.07;2.93;;;-2.70;99.90;;;;;;5097061;28;20954;-80
2021/03/21 02:29:14;;;;;;;7.93;3.10;;;-2.70;99.90;;;;;;5077961;28;20807;-80
2021/03/21 02:31:47;;;;;;;5.70;2.87;;;-2.60;99.90;;;;;;5078470;28;20478;-80
2021/03/21 02:34:25;;;;;;;4.47;3.10;;;-2.60;99.90;;;;;;5078169;28;20852;-80
2021/03/21 02:37:14;;;;;;;5.53;2.73;;;-2.70;99.90;;;;;;5078080;28;20976;-80
2021/03/21 02:40:05;;;;;;;4.97;3.10;;;-2.60;99.90;;;;;;5086441;28;20457;-80
2021/03/21 02:42:35;;;;;;;3.67;2.70;;;-2.60;99.90;;;;;;5078427;28;20477;-80
2021/03/21 02:45:24;;;;;;;5.23;3.20;;;-2.60;99.90;;;;;;5096026;28;20420;-80
2021/03/21 02:47:51;;;;;;;3.63;2.57;;;-2.60;99.90;;;;;;5077925;28;20513;-80
2021/03/21 02:50:20;;;;;;;5.70;3.40;;;-2.70;99.90;;;;;;5078109;28;20427;-80
2021/03/21 02:52:58;;;;;;;8.33;2.73;;;-2.50;99.90;;;;;;5077720;28;20495;-80
2021/03/21 02:55:32;;;;;;;6.73;3.67;;;-2.50;99.90;;;;;;5077438;28;20787;-80
2021/03/21 02:58:06;;;;;;;5.80;3.63;;;-2.50;99.90;;;;;;5095729;28;20410;-80
2021/03/21 03:00:40;;;;;;;5.20;3.23;;;-2.50;99.90;;;;;;5095630;28;20473;-80
2021/03/21 03:03:10;;;;;;;3.03;2.50;;;-2.40;99.90;;;;;;5077370;28;20891;-80
2021/03/21 03:05:45;;;;;;;5.87;3.47;;;-2.40;99.90;;;;;;5095724;28;20401;-80
2021/03/21 03:08:37;;;;;;;5.20;3.40;;;-2.40;99.90;;;;;;5095697;28;20560;-80
2021/03/21 03:11:09;;;;;;;4.73;2.53;;;-2.40;99.90;;;;;;5077783;28;20915;-81
2021/03/21 03:13:45;;;;;;;3.33;2.63;;;-2.40;99.90;;;;;;5095541;28;20449;-80
2021/03/21 03:16:28;;;;;;;3.80;2.60;;;-2.30;99.90;;;;;;5104507;28;20422;-79
2021/03/21 03:19:04;;;;;;;5.30;2.87;;;-2.40;99.90;;;;;;5097117;28;20444;-81
2021/03/21 03:22:01;;;;;;;5.73;3.60;;;-2.30;99.90;;;;;;5095883;28;20404;-80
2021/03/21 03:24:45;;;;;;;6.07;2.93;;;-2.30;99.90;;;;;;5078923;28;20408;-80
2021/03/21 03:27:15;;;;;;;3.60;2.87;;;-2.30;99.90;;;;;;5079220;28;20432;-80
2021/03/21 03:29:49;;;;;;;4.23;2.90;;;-2.40;99.90;;;;;;5079313;28;20480;-79
2021/03/21 03:32:15;;;;;;;4.17;3.00;;;-2.30;99.90;;;;;;5077652;28;20402;-80
2021/03/21 03:34:51;;;;;;;3.40;2.70;;;-2.40;99.90;;;;;;5079452;28;20522;-80
2021/03/21 03:37:16;;;;;;;3.77;2.67;;;-2.40;99.90;;;;;;5099316;28;20426;-80
2021/03/21 03:39:42;;;;;;;4.20;2.70;;;-2.50;99.90;;;;;;5080778;28;20508;-80
2021/03/21 03:42:36;;;;;;;3.37;2.30;;;-2.50;99.90;;;;;;5099502;28;20212;-80
2021/03/21 03:45:42;;;;;;;3.43;2.80;;;-2.50;99.90;;;;;;5100699;28;20394;-80
2021/03/21 03:48:14;;;;;;;3.90;2.97;;;-2.50;99.90;;;;;;5057964;28;20422;-80
2021/03/21 03:50:54;;;;;;;3.70;2.47;;;-2.40;99.90;;;;;;5080690;28;20418;-80
2021/03/21 03:53:38;;;;;;;4.57;2.47;;;-2.40;99.90;;;;;;5081338;28;20533;-80
2021/03/21 03:56:10;;;;;;;6.03;2.90;;;-2.40;99.90;;;;;;5099523;28;20427;-80
2021/03/21 03:59:02;;;;;;;3.90;2.90;;;-2.40;99.90;;;;;;5099171;28;20407;-80
2021/03/21 04:01:51;;;;;;;5.70;2.57;;;-2.30;99.90;;;;;;5099229;28;20394;-80
2021/03/21 04:04:24;;;;;;;3.63;2.60;;;-2.30;99.90;;;;;;5081063;28;20482;-80
2021/03/21 04:07:13;;;;;;;5.80;3.00;;;-2.30;99.90;;;;;;5080632;28;20458;-80
2021/03/21 04:09:55;;;;;;;4.53;2.47;;;-2.30;99.90;;;;;;5098034;28;20473;-79
2021/03/21 04:12:33;;;;;;;4.17;2.57;;;-2.20;99.90;;;;;;5099089;28;20394;-80
2021/03/21 04:15:08;;;;;;;6.00;2.80;;;-2.30;99.90;;;;;;5099270;28;20548;-80
2021/03/21 04:17:52;;;;;;;4.47;2.77;;;-2.30;99.90;;;;;;5080897;28;20524;-80
2021/03/21 04:20:40;;;;;;;4.43;2.47;;;-2.30;99.90;;;;;;5099487;28;20426;-81
2021/03/21 04:23:13;;;;;;;4.20;3.00;;;-2.30;99.90;;;;;;5098832;28;20536;-80
2021/03/21 04:25:51;;;;;;;6.00;2.50;;;-2.30;99.90;;;;;;5080660;28;20401;-80
2021/03/21 04:28:21;;;;;;;4.13;3.03;;;-2.30;99.90;;;;;;5098773;28;20512;-80
2021/03/21 04:30:56;;;;;;;5.20;2.87;;;-2.20;99.90;;;;;;5101612;28;20424;-80
2021/03/21 04:33:28;;;;;;;6.10;3.20;;;-2.20;99.90;;;;;;5103040;28;20445;-81
2021/03/21 04:35:58;;;;;;;3.17;2.40;;;-2.30;99.90;;;;;;5086071;28;20442;-81
2021/03/21 04:38:42;;;;;;;5.67;2.97;;;-2.20;99.90;;;;;;5104340;28;20415;-81
2021/03/21 04:41:11;;;;;;;3.73;2.40;;;-2.20;99.90;;;;;;5104484;28;20405;-80
2021/03/21 04:43:53;;;;;;;4.17;3.00;;;-2.20;99.90;;;;;;5086477;28;20421;-81
2021/03/21 04:46:29;;;;;;;4.93;2.90;;;-2.10;99.90;;;;;;5104117;28;20433;-81
2021/03/21 04:48:55;;;;;;;3.57;2.73;;;-2.20;99.90;;;;;;5086910;28;20414;-81
2021/03/21 04:51:29;;;;;;;3.93;2.70;;;-2.10;99.90;;;;;;5108596;28;20405;-80
2021/03/21 04:54:10;;;;;;;5.37;2.60;;;-0.20;99.90;;;;;;5109182;28;20484;-80
2021/03/21 04:56:40;;;;;;;5.37;2.83;;;-2.10;99.90;;;;;;5083259;28;20434;-80
2021/03/21 04:59:25;;;;;;;4.50;2.57;;;-2.10;99.90;;;;;;5079606;28;20494;-80
2021/03/21 05:02:12;;;;;;;4.30;2.57;;;-2.10;99.90;;;;;;5079958;28;20398;-80
2021/03/21 05:04:50;;;;;;;6.20;2.77;;;-2.00;99.90;;;;;;5098206;28;20473;-80
2021/03/21 05:07:29;;;;;;;3.27;2.43;;;-2.00;99.90;;;;;;5097203;28;20784;-80
2021/03/21 05:10:20;;;;;;;7.10;2.40;;;-2.00;99.90;;;;;;5079305;28;20911;-80
2021/03/21 05:13:02;;;;;;;3.13;2.40;;;-1.90;99.90;;;;;;5097560;28;20383;-81
2021/03/21 05:15:37;;;;;;;5.20;3.00;;;-1.90;99.90;;;;;;5097166;28;20398;-80
2021/03/21 05:18:38;;;;;;;35.23;14.63;;;-1.90;99.90;;;;;;5095821;28;20393;-80
2021/03/21 05:21:16;;;;;;;61.93;22.13;;;-1.90;99.90;;;;;;5074201;28;20415;-80
2021/03/21 05:24:03;;;;;;;13.23;6.27;;;-2.00;99.90;;;;;;5080879;28;20492;-80
2021/03/21 05:26:29;;;;;;;26.33;12.47;;;-2.00;99.90;;;;;;5080075;28;20442;-80
2021/03/21 05:28:54;;;;;;;6.00;4.03;;;-2.00;99.90;;;;;;5080572;28;20438;-80
2021/03/21 05:31:21;;;;;;;7.10;4.00;;;-2.00;99.90;;;;;;5098866;28;20205;-80
2021/03/21 05:33:46;;;;;;;4.70;3.10;;;-2.00;99.90;;;;;;5098528;28;20523;-80
2021/03/21 05:36:20;;;;;;;5.17;3.40;;;-2.00;99.90;;;;;;5080008;28;20469;-80
2021/03/21 05:38:57;;;;;;;3.53;3.17;;;-2.10;99.90;;;;;;5084197;28;20183;-81
2021/03/21 05:41:44;;;;;;;6.33;3.37;;;-2.10;99.90;;;;;;5082209;28;20411;-81
2021/03/21 05:44:31;;;;;;;5.30;3.13;;;-2.10;99.90;;;;;;5080272;28;20422;-80
2021/03/21 05:47:34;;;;;;;6.27;3.80;;;-2.00;99.90;;;;;;5080192;28;20430;-80
2021/03/21 05:50:37;;;;;;;7.27;4.13;;;-2.00;99.90;;;;;;5080730;28;20446;-80
2021/03/21 05:53:23;;;;;;;4.00;2.57;;;-1.90;99.90;;;;;;5099596;28;20485;-80
2021/03/21 05:56:01;;;;;;;2.83;2.37;;;-1.80;99.90;;;;;;5080723;28;20432;-81
2021/03/21 05:59:00;;;;;;;5.93;3.40;;;-1.80;99.90;;;;;;5099316;28;20395;-81
2021/03/21 06:01:49;;;;;;;4.57;3.37;;;-1.80;99.90;;;;;;5099706;28;20876;-81
2021/03/21 06:04:41;;;;;;;4.60;3.07;;;-1.80;99.90;;;;;;5099525;28;20395;-80
2021/03/21 06:07:24;;;;;;;7.33;3.37;;;-1.90;99.90;;;;;;5081662;28;20461;-80
2021/03/21 06:10:20;;;;;;;5.53;3.37;;;-1.90;99.90;;;;;;5099633;28;20391;-80
2021/03/21 06:13:04;;;;;;;4.23;2.97;;;-2.00;99.90;;;;;;5081286;28;20515;-80
2021/03/21 06:15:58;;;;;;;2.93;2.30;;;-2.00;99.90;;;;;;5079243;28;20425;-80
2021/03/21 06:19:05;;;;;;;5.47;3.47;;;-2.00;99.90;;;;;;5099794;28;20393;-80
2021/03/21 06:22:12;;;;;;;6.80;3.10;;;-2.00;99.90;;;;;;5061253;28;20404;-81
2021/03/21 06:25:08;;;;;;;6.17;3.37;;;-1.90;99.90;;;;;;5080121;28;20411;-80
2021/03/21 06:27:54;;;;;;;4.47;3.23;;;-1.80;99.90;;;;;;5080850;28;20435;-80
2021/03/21 06:30:39;;;;;;;6.37;3.40;;;-1.80;99.90;;;;;;5080524;28;20421;-80
2021/03/21 06:33:13;;;;;;;2.97;2.27;;;-1.70;99.90;;;;;;5079302;28;20410;-80
2021/03/21 06:36:04;;;;;;;4.17;3.23;;;-1.60;99.90;;;;;;5098574;28;20436;-81
2021/03/21 06:38:55;;;;;;;3.97;3.27;;;-1.60;99.90;;;;;;5098788;28;20435;-80
2021/03/21 06:42:08;;;;;;;4.20;2.80;;;-1.50;99.90;;;;;;5057129;28;20472;-80
2021/03/21 06:45:10;;;;;;;3.57;2.80;;;-1.40;99.90;;;;;;5080003;28;20420;-81
2021/03/21 06:48:05;;;;;;;4.43;2.90;;;-1.50;99.90;;;;;;5079258;28;20535;-81
2021/03/21 06:50:55;;;;;;;6.73;3.20;;;-1.50;99.90;;;;;;5070165;28;20414;-81
2021/03/21 06:53:32;;;;;;;3.97;2.60;;;-1.50;99.90;;;;;;5097989;28;20724;-81
2021/03/21 06:56:24;;;;;;;4.17;2.90;;;-1.50;99.90;;;;;;5097400;28;20429;-81
2021/03/21 06:59:11;;;;;;;4.73;3.20;;;-1.50;99.90;;;;;;5078793;28;20779;-81
2021/03/21 07:02:14;;;;;;;4.40;3.27;;;-1.50;99.90;;;;;;5097399;28;20394;-81
2021/03/21 07:05:04;;;;;;;5.13;3.30;;;-1.40;99.90;;;;;;5097903;28;20500;-81
2021/03/21 07:07:39;;;;;;;6.30;3.63;;;-1.40;99.90;;;;;;5080031;28;20501;-80
2021/03/21 07:10:29;;;;;;;3.67;3.00;;;-1.20;99.90;;;;;;5100283;28;20428;-81
2021/03/21 07:12:56;;;;;;;4.13;2.80;;;-1.10;99.90;;;;;;5082352;28;20878;-81
2021/03/21 07:15:27;;;;;;;7.03;3.27;;;-1.00;99.90;;;;;;5086421;28;20496;-81
2021/03/21 07:18:27;;;;;;;3.63;2.80;;;-1.00;99.90;;;;;;5086413;28;20467;-81
2021/03/21 07:21:05;;;;;;;3.70;3.03;;;-0.90;99.90;;;;;;5105714;28;20742;-81
2021/03/21 07:23:50;;;;;;;3.50;2.53;;;-0.70;99.90;;;;;;5105877;28;20460;-81
2021/03/21 07:26:46;;;;;;;3.97;3.17;;;-0.80;99.90;;;;;;5107172;28;20505;-81
2021/03/21 07:29:20;;;;;;;4.40;2.57;;;-0.70;99.90;;;;;;5087768;28;20414;-81
2021/03/21 07:32:03;;;;;;;4.90;3.30;;;-0.60;99.90;;;;;;5106445;28;20476;-81
2021/03/21 07:34:37;;;;;;;3.73;2.50;;;-0.60;99.90;;;;;;5106880;28;20445;-81
2021/03/21 07:37:43;;;;;;;5.27;3.33;;;-0.50;99.90;;;;;;5087183;28;20429;-81
2021/03/21 07:40:11;;;;;;;7.67;3.00;;;-0.40;99.90;;;;;;5026863;28;20417;-81
2021/03/21 07:43:03;;;;;;;5.70;3.07;;;-0.30;99.90;;;;;;5079514;28;20489;-82
2021/03/21 07:46:04;;;;;;;6.83;3.00;;;-0.20;99.90;;;;;;5090782;28;20410;-81
2021/03/21 07:48:58;;;;;;;4.17;2.67;;;-0.10;99.90;;;;;;5088484;28;20422;-81
2021/03/21 07:51:54;;;;;;;6.13;3.27;;;0.00;99.90;;;;;;5093410;28;20476;-81
2021/03/21 07:54:57;;;;;;;5.70;4.27;;;0.00;99.90;;;;;;5101981;28;20449;-81
2021/03/21 07:57:51;;;;;;;3.73;3.20;;;0.20;99.90;;;;;;5077557;28;20865;-81
2021/03/21 08:00:17;;;;;;;22.00;19.60;;;0.30;99.50;;;;;;5083735;28;20804;-81
2021/03/21 08:02:43;;;;;;;4.23;3.23;;;0.30;99.20;;;;;;5083864;28;20415;-81
2021/03/21 08:05:27;;;;;;;3.40;2.60;;;0.40;99.20;;;;;;5101352;28;20406;-81
2021/03/21 08:07:55;;;;;;;3.07;2.50;;;0.40;99.30;;;;;;5083931;28;20191;-81
2021/03/21 08:10:31;;;;;;;5.17;3.63;;;0.40;98.60;;;;;;5083217;28;20558;-81
2021/03/21 08:13:15;;;;;;;4.27;2.80;;;0.20;99.40;;;;;;5103049;28;20436;-81
2021/03/21 08:15:41;;;;;;;3.60;2.90;;;0.10;99.00;;;;;;5103274;28;20720;-81
2021/03/21 08:18:17;;;;;;;5.57;3.13;;;0.00;99.70;;;;;;5083861;28;20464;-81
2021/03/21 08:20:52;;;;;;;5.03;2.67;;;0.20;99.90;;;;;;5083020;28;20252;-81
2021/03/21 08:23:31;;;;;;;4.07;2.37;;;0.20;99.90;;;;;;5101794;28;20379;-82
2021/03/21 08:26:03;;;;;;;3.40;3.10;;;0.30;99.90;;;;;;5101493;28;20418;-81
2021/03/21 08:28:37;;;;;;;3.20;2.80;;;0.40;99.90;;;;;;5083833;28;20817;-81
2021/03/21 08:31:07;;;;;;;5.60;3.87;;;0.50;99.90;;;;;;5084144;28;20402;-82
2021/03/21 08:33:43;;;;;;;5.60;3.17;;;0.50;98.60;;;;;;5102831;28;20437;-83
2021/03/21 08:36:18;;;;;;;4.30;2.50;;;0.40;97.80;;;;;;5084195;28;20789;-83
2021/03/21 08:39:12;;;;;;;3.17;2.40;;;0.30;98.00;;;;;;5083812;28;20432;-83
2021/03/21 08:41:54;;;;;;;5.37;3.10;;;0.30;97.50;;;;;;5082882;28;20409;-83
2021/03/21 08:44:46;;;;;;;3.60;2.73;;;0.10;98.20;;;;;;5103370;28;20390;-81
2021/03/21 08:47:27;;;;;;;3.77;2.73;;;0.10;97.80;;;;;;5086165;28;20438;-82
2021/03/21 08:49:55;;;;;;;4.00;2.47;;;0.00;97.60;;;;;;5103307;28;20405;-83
2021/03/21 08:52:43;;;;;;;2.63;2.30;;;0.00;98.10;;;;;;5101746;28;20410;-82
2021/03/21 08:55:41;;;;;;;4.23;2.47;;;0.00;98.40;;;;;;5082307;28;20457;-83
2021/03/21 08:58:25;;;;;;;4.83;3.00;;;0.10;97.90;;;;;;5050962;28;20460;-83
2021/03/21 09:00:53;;;;;;;4.03;2.73;;;0.10;98.10;;;;;;5103843;28;20399;-82
2021/03/21 09:03:30;;;;;;;4.80;3.23;;;0.00;98.20;;;;;;5100631;28;20410;-82
2021/03/21 09:05:58;;;;;;;5.93;3.20;;;0.10;98.10;;;;;;5100424;28;20430;-82
2021/03/21 09:08:27;;;;;;;3.40;2.80;;;0.20;98.90;;;;;;5082850;28;20461;-82
2021/03/21 09:11:02;;;;;;;3.30;2.93;;;0.40;98.70;;;;;;5083191;28;20493;-82
2021/03/21 09:13:31;;;;;;;3.33;2.67;;;0.40;99.00;;;;;;5101589;28;20491;-83
2021/03/21 09:15:57;;;;;;;4.20;3.00;;;0.40;98.10;;;;;;5084543;28;20430;-83
2021/03/21 09:18:35;;;;;;;4.67;3.33;;;0.40;99.00;;;;;;5087113;28;20935;-82
2021/03/21 09:21:18;;;;;;;8.40;2.53;;;0.40;99.50;;;;;;5105233;28;20224;-82
2021/03/21 09:24:09;;;;;;;5.47;3.53;;;0.30;99.90;;;;;;5086953;28;20424;-82
2021/03/21 09:26:40;;;;;;;4.07;3.50;;;0.40;99.80;;;;;;5103997;28;20518;-79
2021/03/21 09:29:17;;;;;;;3.40;2.83;;;0.40;99.90;;;;;;5103661;28;20405;-81
2021/03/21 09:31:43;;;;;;;5.13;3.20;;;0.30;99.90;;;;;;5085867;28;20450;-81
2021/03/21 09:34:25;;;;;;;6.87;4.17;;;0.30;99.90;;;;;;5103332;28;20450;-82
2021/03/21 09:37:10;;;;;;;6.67;3.90;;;0.50;99.90;;;;;;5102945;28;20426;-81
2021/03/21 09:39:42;;;;;;;7.53;4.07;;;0.40;99.90;;;;;;5084980;28;20403;-81
2021/03/21 09:42:13;;;;;;;3.60;2.90;;;0.30;99.90;;;;;;5103493;28;20876;-81
2021/03/21 09:44:43;;;;;;;3.87;3.03;;;0.20;99.90;;;;;;5101418;28;20402;-80
2021/03/21 09:47:15;;;;;;;5.07;3.97;;;0.20;99.90;;;;;;5084526;28;20492;-80
2021/03/21 09:49:50;;;;;;;2.93;2.17;;;0.20;99.90;;;;;;5103844;28;20418;-81
2021/03/21 09:52:37;;;;;;;7.80;5.07;;;0.10;99.90;;;;;;5103950;28;20418;-80
2021/03/21 09:55:40;;;;;;;5.97;4.20;;;0.10;99.90;;;;;;5102982;28;20485;-80
2021/03/21 09:58:26;;;;;;;3.83;3.40;;;0.10;99.90;;;;;;5070744;28;20457;-80
2021/03/21 10:01:02;;;;;;;4.23;3.43;;;0.10;99.90;;;;;;5083750;28;20415;-80
2021/03/21 10:03:34;;;;;;;5.80;3.40;;;0.20;99.90;;;;;;5100993;28;20448;-80
2021/03/21 10:06:15;;;;;;;6.90;5.13;;;0.30;99.90;;;;;;5102021;28;20432;-80
2021/03/21 10:09:00;;;;;;;5.13;3.57;;;0.30;99.90;;;;;;5102183;28;20425;-80
2021/03/21 10:11:33;;;;;;;4.20;3.57;;;0.40;99.90;;;;;;5102789;28;20439;-80
2021/03/21 10:14:00;;;;;;;4.00;2.90;;;0.40;99.90;;;;;;5084190;28;20547;-80
2021/03/21 10:16:26;;;;;;;5.00;3.97;;;0.50;99.90;;;;;;5102832;28;20430;-80
2021/03/21 10:19:05;;;;;;;34.10;20.60;;;0.50;99.90;;;;;;5085498;28;20479;-80
2021/03/21 10:21:35;;;;;;;8.37;5.67;;;0.50;99.90;;;;;;5101584;28;20393;-80
2021/03/21 10:24:04;;;;;;;9.80;5.97;;;0.60;99.60;;;;;;5083370;28;20450;-80
2021/03/21 10:26:32;;;;;;;5.13;3.03;;;0.60;99.30;;;;;;5101441;28;20426;-80
2021/03/21 10:29:21;;;;;;;7.70;3.50;;;0.50;98.80;;;;;;5082909;28;20540;-80
2021/03/21 10:31:46;;;;;;;48.93;19.43;;;0.50;99.20;;;;;;5083666;28;20448;-80
2021/03/21 10:34:12;;;;;;;10.37;5.03;;;0.50;99.60;;;;;;5084070;28;20545;-80
2021/03/21 10:36:37;;;;;;;7.40;3.63;;;0.70;98.90;;;;;;5101870;28;20203;-79
2021/03/21 10:39:06;;;;;;;4.60;3.20;;;0.60;98.50;;;;;;5084585;28;20199;-80
2021/03/21 10:42:01;;;;;;;7.80;3.10;;;0.70;98.50;;;;;;5101773;28;20204;-79
2021/03/21 10:44:35;;;;;;;7.03;3.90;;;0.60;99.20;;;;;;5081638;28;20500;-79
2021/03/21 10:47:36;;;;;;;6.57;3.57;;;0.70;99.50;;;;;;5086774;28;20468;-79
2021/03/21 10:50:10;;;;;;;5.27;2.80;;;0.80;99.80;;;;;;5095157;28;20413;-79
2021/03/21 10:52:39;;;;;;;4.23;2.40;;;0.90;99.90;;;;;;5095338;28;20396;-80
2021/03/21 10:55:10;;;;;;;6.60;3.30;;;0.90;99.90;;;;;;5087244;28;20452;-80
2021/03/21 10:57:45;;;;;;;4.13;2.77;;;1.00;99.50;;;;;;5100717;28;20422;-81
2021/03/21 11:00:27;;;;;;;3.03;2.60;;;1.00;99.10;;;;;;5084364;28;20405;-80
2021/03/21 11:02:59;;;;;;;3.63;2.57;;;0.80;99.80;;;;;;5103799;28;20418;-80
2021/03/21 11:05:56;;;;;;;3.43;2.47;;;0.70;99.70;;;;;;5085880;28;20415;-80
2021/03/21 11:08:30;;;;;;;3.20;2.83;;;0.60;99.70;;;;;;5088473;28;20464;-80
2021/03/21 11:10:59;;;;;;;5.63;3.23;;;0.60;99.90;;;;;;5083583;28;20759;-80
2021/03/21 11:13:33;;;;;;;3.27;2.80;;;0.70;99.90;;;;;;5083025;28;20441;-81
2021/03/21 11:16:07;;;;;;;9.67;6.37;;;0.90;99.90;;;;;;5101631;28;20425;-81
2021/03/21 11:18:34;;;;;;;3.67;2.87;;;0.90;99.90;;;;;;5100981;28;20398;-81
2021/03/21 11:21:19;;;;;;;5.30;3.20;;;0.80;99.90;;;;;;5082900;28;20478;-80
2021/03/21 11:23:49;;;;;;;9.30;5.60;;;0.60;99.90;;;;;;5082650;28;20418;-81
2021/03/21 11:26:24;;;;;;;3.67;2.77;;;0.60;99.90;;;;;;5082244;28;20536;-81
2021/03/21 11:29:07;;;;;;;5.07;4.20;;;0.80;99.90;;;;;;5081238;28;20467;-80
2021/03/21 11:31:38;;;;;;;6.47;2.73;;;1.00;99.90;;;;;;5100328;28;20481;-81
2021/03/21 11:34:24;;;;;;;4.37;3.57;;;1.10;99.90;;;;;;5083047;28;20545;-81
2021/03/21 11:37:10;;;;;;;6.60;3.00;;;1.20;99.90;;;;;;5082629;28;20472;-81
2021/03/21 11:39:41;;;;;;;6.83;4.27;;;1.20;99.90;;;;;;5081982;28;20487;-81
2021/03/21 11:42:24;;;;;;;7.83;4.40;;;1.10;99.90;;;;;;5081254;28;20741;-81
2021/03/21 11:44:52;;;;;;;2.87;2.37;;;0.90;99.90;;;;;;5081531;28;20414;-81
2021/03/21 11:47:22;;;;;;;4.80;3.30;;;1.00;99.90;;;;;;5080920;28;20430;-81
2021/03/21 11:49:49;;;;;;;2.47;2.27;;;0.80;99.90;;;;;;5081895;28;20412;-82
2021/03/21 11:52:15;;;;;;;6.93;3.37;;;0.90;99.90;;;;;;5099978;28;20433;-82
2021/03/21 11:54:43;;;;;;;4.83;2.87;;;0.70;99.90;;;;;;5081096;28;20460;-81
2021/03/21 11:57:09;;;;;;;9.13;4.93;;;0.80;99.90;;;;;;5102956;28;20422;-82
2021/03/21 11:59:46;;;;;;;4.60;3.40;;;0.90;99.90;;;;;;5101953;28;20452;-81
2021/03/21 12:02:29;;;;;;;6.83;3.80;;;1.00;99.90;;;;;;5084645;28;20683;-81
2021/03/21 12:04:55;;;;;;;5.83;3.17;;;0.90;99.90;;;;;;5102880;28;20748;-81
2021/03/21 12:07:27;;;;;;;4.47;3.27;;;0.90;99.90;;;;;;5102321;28;20794;-81
2021/03/21 12:09:53;;;;;;;5.97;4.00;;;0.80;99.90;;;;;;5084537;28;20923;-82
2021/03/21 12:12:35;;;;;;;5.37;3.40;;;0.80;99.90;;;;;;5102036;28;20406;-81
2021/03/21 12:15:02;;;;;;;33.00;12.60;;;0.90;99.90;;;;;;5083727;28;20458;-81
2021/03/21 12:17:33;;;;;;;4.87;3.73;;;0.90;99.90;;;;;;5083746;28;20480;-81
2021/03/21 12:20:24;;;;;;;5.33;3.77;;;0.90;99.90;;;;;;5084002;28;20795;-81
2021/03/21 12:22:50;;;;;;;4.70;3.60;;;0.90;99.90;;;;;;5084138;28;20410;-81
2021/03/21 12:25:24;;;;;;;6.13;3.40;;;0.90;99.90;;;;;;5084418;28;20402;-81
2021/03/21 12:27:53;;;;;;;8.30;3.77;;;0.90;99.90;;;;;;5104976;28;20433;-81
2021/03/21 12:30:28;;;;;;;5.63;3.40;;;0.80;99.90;;;;;;5084956;28;20813;-81
2021/03/21 12:33:15;;;;;;;5.10;2.93;;;0.80;99.90;;;;;;5084675;28;20420;-81
2021/03/21 12:35:42;;;;;;;9.80;4.07;;;0.80;99.90;;;;;;5100660;28;20383;-81
2021/03/21 12:38:37;;;;;;;5.03;3.43;;;0.90;99.90;;;;;;5100094;28;20481;-80
2021/03/21 12:41:33;;;;;;;5.67;3.03;;;0.90;99.90;;;;;;5074510;28;20402;-81
2021/03/21 12:44:22;;;;;;;4.77;3.00;;;0.80;99.90;;;;;;5082794;28;20406;-81
2021/03/21 12:47:03;;;;;;;7.43;4.20;;;0.80;99.90;;;;;;5083154;28;20521;-81
2021/03/21 12:49:38;;;;;;;6.77;3.63;;;0.70;99.90;;;;;;5082565;28;20395;-81
2021/03/21 12:52:07;;;;;;;7.07;3.40;;;0.70;99.90;;;;;;5082642;28;20394;-80
2021/03/21 12:54:34;;;;;;;10.40;3.43;;;0.80;99.90;;;;;;5082325;28;20490;-81
2021/03/21 12:57:00;;;;;;;8.93;4.17;;;0.80;99.90;;;;;;5100742;28;20422;-81
2021/03/21 12:59:26;;;;;;;5.17;3.70;;;0.80;99.90;;;;;;5082060;28;20456;-81
2021/03/21 13:01:51;;;;;;;8.83;3.80;;;0.90;99.90;;;;;;5100475;28;20172;-81
2021/03/21 13:04:18;;;;;;;4.63;3.60;;;0.80;99.90;;;;;;5100700;28;20180;-81
2021/03/21 13:06:44;;;;;;;5.00;2.70;;;0.90;99.90;;;;;;5082149;28;20200;-81
2021/03/21 13:09:09;;;;;;;7.10;4.73;;;0.90;99.90;;;;;;5082418;28;20911;-81
2021/03/21 13:11:37;;;;;;;6.10;4.33;;;1.30;99.90;;;;;;5082669;28;20247;-81
2021/03/21 13:14:04;;;;;;;5.20;3.53;;;1.10;99.90;;;;;;5081616;28;20208;-81
2021/03/21 13:16:29;;;;;;;6.33;3.77;;;1.10;99.90;;;;;;5081208;28;20756;-81
2021/03/21 13:18:55;;;;;;;4.87;3.60;;;1.10;99.90;;;;;;5080745;28;20417;-81
2021/03/21 13:21:22;;;;;;;9.23;4.97;;;1.00;99.90;;;;;;5099623;28;20669;-81
2021/03/21 13:23:48;;;;;;;4.90;2.93;;;1.00;99.90;;;;;;5081123;28;20186;-81
2021/03/21 13:26:14;;;;;;;5.80;3.70;;;1.00;99.90;;;;;;5099136;28;20426;-81
2021/03/21 13:28:39;;;;;;;5.23;4.00;;;0.90;99.90;;;;;;5080902;28;20638;-81
2021/03/21 13:31:05;;;;;;;7.53;4.33;;;0.90;99.90;;;;;;5100691;28;20633;-81
2021/03/21 13:33:31;;;;;;;5.47;3.90;;;0.90;99.90;;;;;;5100089;28;20172;-80
2021/03/21 13:35:59;;;;;;;11.53;3.63;;;0.70;99.90;;;;;;5083443;28;20219;-81
2021/03/21 13:38:26;;;;;;;5.43;3.80;;;0.80;99.90;;;;;;5085298;28;20419;-81
2021/03/21 13:40:54;;;;;;;7.30;4.27;;;0.70;99.90;;;;;;5081057;28;20454;-81